createdAt,value
2018-12-08T00:00:27.633Z,992.11
2018-12-08T00:01:27.623Z,992.14
2018-12-08T00:02:27.609Z,992.11
2018-12-08T00:03:27.600Z,992.11
2018-12-08T00:04:27.591Z,992.08
2018-12-08T00:05:27.581Z,992.09
2018-12-08T00:06:27.567Z,992.16
2018-12-08T00:07:27.558Z,992.14
2018-12-08T00:08:27.546Z,992.13
2018-12-08T00:09:27.534Z,992.11
2018-12-08T00:10:27.531Z,992.17
2018-12-08T00:11:27.515Z,992.17
2018-12-08T00:12:27.503Z,992.18
2018-12-08T00:13:27.489Z,992.23
2018-12-08T00:14:27.481Z,992.21
2018-12-08T00:15:27.495Z,992.16
2018-12-08T00:16:27.458Z,992.16
2018-12-08T00:17:27.447Z,992.10
2018-12-08T00:18:27.438Z,992.05
2018-12-08T00:19:27.428Z,992.06
2018-12-08T00:20:27.413Z,992.03
2018-12-08T00:21:27.403Z,992.10
2018-12-08T00:22:27.395Z,992.02
2018-12-08T00:23:27.383Z,992.07
2018-12-08T00:24:27.375Z,992.03
2018-12-08T00:25:27.359Z,992.07
2018-12-08T00:26:27.477Z,992.05
2018-12-08T00:27:27.340Z,992.17
2018-12-08T00:28:27.329Z,992.07
2018-12-08T00:29:27.318Z,992.12
2018-12-08T00:30:27.313Z,992.14
2018-12-08T00:31:27.297Z,992.12
2018-12-08T00:32:27.284Z,992.15
2018-12-08T00:33:27.273Z,992.07
2018-12-08T00:34:27.261Z,992.12
2018-12-08T00:35:27.257Z,992.15
2018-12-08T00:36:27.382Z,992.13
2018-12-08T00:37:27.230Z,992.12
2018-12-08T00:38:27.219Z,992.07
2018-12-08T00:39:27.210Z,992.10
2018-12-08T00:40:27.199Z,992.16
2018-12-08T00:41:27.187Z,992.16
2018-12-08T00:42:27.179Z,992.15
2018-12-08T00:43:27.173Z,992.20
2018-12-08T00:44:27.155Z,992.15
2018-12-08T00:45:27.146Z,992.15
2018-12-08T00:46:27.138Z,992.11
2018-12-08T00:47:27.125Z,992.16
2018-12-08T00:48:27.113Z,992.16
2018-12-08T00:49:27.106Z,992.19
2018-12-08T00:50:27.088Z,992.18
2018-12-08T00:51:27.078Z,992.18
2018-12-08T00:52:27.066Z,992.17
2018-12-08T00:53:27.066Z,992.15
2018-12-08T00:54:27.043Z,992.15
2018-12-08T00:55:27.033Z,992.13
2018-12-08T00:56:27.026Z,992.13
2018-12-08T00:57:27.017Z,992.13
2018-12-08T00:58:27.001Z,992.11
2018-12-08T00:59:26.994Z,992.19
2018-12-08T01:00:26.980Z,992.08
2018-12-08T01:01:26.971Z,992.12
2018-12-08T01:02:26.962Z,992.17
2018-12-08T01:03:26.949Z,992.13
2018-12-08T01:04:26.939Z,992.13
2018-12-08T01:05:26.926Z,992.14
2018-12-08T01:06:26.916Z,992.15
2018-12-08T01:07:26.904Z,992.22
2018-12-08T01:08:26.895Z,992.16
2018-12-08T01:09:26.884Z,992.18
2018-12-08T01:10:26.873Z,992.26
2018-12-08T01:11:26.861Z,992.28
2018-12-08T01:12:26.855Z,992.29
2018-12-08T01:13:26.842Z,992.24
2018-12-08T01:14:26.831Z,992.26
2018-12-08T01:15:26.822Z,992.30
2018-12-08T01:16:26.813Z,992.29
2018-12-08T01:17:26.798Z,992.27
2018-12-08T01:18:26.785Z,992.29
2018-12-08T01:19:26.776Z,992.31
2018-12-08T01:20:26.763Z,992.27
2018-12-08T01:21:26.759Z,992.30
2018-12-08T01:22:26.742Z,992.28
2018-12-08T01:23:26.731Z,992.29
2018-12-08T01:24:26.720Z,992.37
2018-12-08T01:25:26.709Z,992.43
2018-12-08T01:26:26.708Z,992.37
2018-12-08T01:27:26.700Z,992.37
2018-12-08T01:28:26.677Z,992.43
2018-12-08T01:29:26.679Z,992.44
2018-12-08T01:30:26.660Z,992.40
2018-12-08T01:31:26.644Z,992.38
2018-12-08T01:32:26.632Z,992.35
2018-12-08T01:33:26.621Z,992.41
2018-12-08T01:34:26.615Z,992.43
2018-12-08T01:35:26.606Z,992.49
2018-12-08T01:36:26.598Z,992.47
2018-12-08T01:37:26.584Z,992.55
2018-12-08T01:38:26.574Z,992.54
2018-12-08T01:39:26.560Z,992.46
2018-12-08T01:40:26.551Z,992.52
2018-12-08T01:41:26.542Z,992.50
2018-12-08T01:42:26.530Z,992.57
2018-12-08T01:43:26.517Z,992.47
2018-12-08T01:44:26.508Z,992.50
2018-12-08T01:45:26.498Z,992.49
2018-12-08T01:46:26.485Z,992.57
2018-12-08T01:47:26.493Z,992.59
2018-12-08T01:48:26.464Z,992.45
2018-12-08T01:49:26.453Z,992.57
2018-12-08T01:50:26.442Z,992.55
2018-12-08T01:51:26.436Z,992.54
2018-12-08T01:52:26.419Z,992.62
2018-12-08T01:53:26.408Z,992.56
2018-12-08T01:54:26.397Z,992.64
2018-12-08T01:55:26.396Z,992.58
2018-12-08T01:56:26.378Z,992.58
2018-12-08T01:57:26.368Z,992.60
2018-12-08T01:58:26.355Z,992.57
2018-12-08T01:59:26.347Z,992.52
2018-12-08T02:00:26.331Z,992.51
2018-12-08T02:01:26.321Z,992.56
2018-12-08T02:02:26.310Z,992.54
2018-12-08T02:03:26.298Z,992.61
2018-12-08T02:04:26.288Z,992.60
2018-12-08T02:05:26.278Z,992.60
2018-12-08T02:06:26.267Z,992.55
2018-12-08T02:07:26.258Z,992.54
2018-12-08T02:08:26.247Z,992.48
2018-12-08T02:09:26.233Z,992.57
2018-12-08T02:10:26.224Z,992.58
2018-12-08T02:11:26.221Z,992.54
2018-12-08T02:12:26.210Z,992.48
2018-12-08T02:13:26.191Z,992.50
2018-12-08T02:14:26.178Z,992.55
2018-12-08T02:15:26.170Z,992.53
2018-12-08T02:16:26.160Z,992.59
2018-12-08T02:17:26.149Z,992.51
2018-12-08T02:18:26.138Z,992.51
2018-12-08T02:19:26.131Z,992.51
2018-12-08T02:20:26.114Z,992.47
2018-12-08T02:21:26.103Z,992.53
2018-12-08T02:22:26.094Z,992.45
2018-12-08T02:23:26.087Z,992.50
2018-12-08T02:24:26.069Z,992.56
2018-12-08T02:25:26.059Z,992.57
2018-12-08T02:26:26.049Z,992.47
2018-12-08T02:27:26.039Z,992.49
2018-12-08T02:28:26.028Z,992.48
2018-12-08T02:29:26.015Z,992.51
2018-12-08T02:30:26.006Z,992.48
2018-12-08T02:31:25.997Z,992.47
2018-12-08T02:32:25.989Z,992.43
2018-12-08T02:33:25.977Z,992.46
2018-12-08T02:34:25.965Z,992.40
2018-12-08T02:35:25.952Z,992.47
2018-12-08T02:36:25.945Z,992.48
2018-12-08T02:37:25.928Z,992.50
2018-12-08T02:38:25.920Z,992.51
2018-12-08T02:39:25.908Z,992.48
2018-12-08T02:40:25.897Z,992.55
2018-12-08T02:41:25.888Z,992.46
2018-12-08T02:42:25.876Z,992.53
2018-12-08T02:43:25.866Z,992.50
2018-12-08T02:44:25.853Z,992.54
2018-12-08T02:45:25.842Z,992.58
2018-12-08T02:46:25.836Z,992.49
2018-12-08T02:47:25.822Z,992.52
2018-12-08T02:48:25.813Z,992.58
2018-12-08T02:49:25.805Z,992.55
2018-12-08T02:50:25.791Z,992.57
2018-12-08T02:51:25.779Z,992.53
2018-12-08T02:52:25.770Z,992.55
2018-12-08T02:53:25.757Z,992.56
2018-12-08T02:54:25.748Z,992.60
2018-12-08T02:55:25.733Z,992.61
2018-12-08T02:56:25.727Z,992.59
2018-12-08T02:57:25.715Z,992.47
2018-12-08T02:58:25.714Z,992.58
2018-12-08T02:59:25.700Z,992.52
2018-12-08T03:00:25.679Z,992.56
2018-12-08T03:01:25.670Z,992.56
2018-12-08T03:02:25.658Z,992.59
2018-12-08T03:03:25.647Z,992.62
2018-12-08T03:04:25.638Z,992.60
2018-12-08T03:05:25.625Z,992.55
2018-12-08T03:06:25.615Z,992.53
2018-12-08T03:07:25.604Z,992.52
2018-12-08T03:08:25.593Z,992.51
2018-12-08T03:09:25.581Z,992.50
2018-12-08T03:10:25.573Z,992.46
2018-12-08T03:11:25.562Z,992.49
2018-12-08T03:12:25.551Z,992.43
2018-12-08T03:13:25.540Z,992.41
2018-12-08T03:14:25.534Z,992.42
2018-12-08T03:15:25.515Z,992.36
2018-12-08T03:16:25.506Z,992.35
2018-12-08T03:17:25.495Z,992.39
2018-12-08T03:18:25.482Z,992.41
2018-12-08T03:19:25.472Z,992.31
2018-12-08T03:20:25.463Z,992.33
2018-12-08T03:21:25.451Z,992.32
2018-12-08T03:22:25.440Z,992.28
2018-12-08T03:23:25.430Z,992.29
2018-12-08T03:24:25.416Z,992.25
2018-12-08T03:25:25.406Z,992.31
2018-12-08T03:26:25.394Z,992.29
2018-12-08T03:27:25.385Z,992.27
2018-12-08T03:28:25.374Z,992.25
2018-12-08T03:29:25.362Z,992.24
2018-12-08T03:30:25.353Z,992.19
2018-12-08T03:31:25.357Z,992.19
2018-12-08T03:32:25.330Z,992.19
2018-12-08T03:33:25.320Z,992.18
2018-12-08T03:34:25.306Z,992.19
2018-12-08T03:35:25.296Z,992.17
2018-12-08T03:36:25.292Z,992.15
2018-12-08T03:37:25.276Z,992.12
2018-12-08T03:38:25.266Z,992.17
2018-12-08T03:39:25.255Z,992.02
2018-12-08T03:40:25.243Z,992.05
2018-12-08T03:41:25.231Z,992.03
2018-12-08T03:42:25.219Z,992.01
2018-12-08T03:43:25.209Z,992.03
2018-12-08T03:44:25.199Z,992.04
2018-12-08T03:45:25.189Z,992.00
2018-12-08T03:46:25.178Z,991.96
2018-12-08T03:47:25.210Z,992.06
2018-12-08T03:48:25.157Z,992.01
2018-12-08T03:49:25.166Z,991.92
2018-12-08T03:50:25.136Z,991.94
2018-12-08T03:51:25.121Z,991.94
2018-12-08T03:52:25.115Z,991.91
2018-12-08T03:53:25.098Z,991.99
2018-12-08T03:54:25.091Z,991.93
2018-12-08T03:55:25.077Z,991.90
2018-12-08T03:56:25.067Z,991.93
2018-12-08T03:57:25.064Z,991.91
2018-12-08T03:58:25.044Z,991.89
2018-12-08T03:59:25.033Z,991.93
2018-12-08T04:00:25.024Z,991.89
2018-12-08T04:01:25.019Z,991.90
2018-12-08T04:02:25.007Z,991.88
2018-12-08T04:03:24.991Z,991.86
2018-12-08T04:04:24.983Z,991.91
2018-12-08T04:05:24.973Z,991.89
2018-12-08T04:06:24.960Z,991.89
2018-12-08T04:07:24.947Z,991.94
2018-12-08T04:08:24.936Z,991.86
2018-12-08T04:09:24.925Z,991.89
2018-12-08T04:10:24.922Z,991.84
2018-12-08T04:11:24.902Z,991.90
2018-12-08T04:12:24.890Z,991.93
2018-12-08T04:13:24.885Z,991.88
2018-12-08T04:14:24.885Z,991.95
2018-12-08T04:15:24.864Z,991.84
2018-12-08T04:16:24.845Z,991.91
2018-12-08T04:17:24.836Z,991.88
2018-12-08T04:18:24.825Z,991.90
2018-12-08T04:19:24.817Z,991.92
2018-12-08T04:20:24.817Z,991.92
2018-12-08T04:21:24.791Z,991.88
2018-12-08T04:22:24.780Z,991.89
2018-12-08T04:23:24.768Z,991.90
2018-12-08T04:24:24.760Z,991.86
2018-12-08T04:25:24.747Z,991.85
2018-12-08T04:26:24.736Z,991.84
2018-12-08T04:27:24.727Z,991.85
2018-12-08T04:28:24.755Z,991.89
2018-12-08T04:29:24.709Z,991.87
2018-12-08T04:30:24.693Z,991.85
2018-12-08T04:31:24.681Z,991.83
2018-12-08T04:32:24.672Z,991.79
2018-12-08T04:33:24.664Z,991.82
2018-12-08T04:34:24.648Z,991.83
2018-12-08T04:35:24.640Z,991.81
2018-12-08T04:36:24.627Z,991.75
2018-12-08T04:37:24.616Z,991.75
2018-12-08T04:38:24.606Z,991.76
2018-12-08T04:39:24.594Z,991.72
2018-12-08T04:40:24.585Z,991.60
2018-12-08T04:41:24.572Z,991.74
2018-12-08T04:42:24.562Z,991.66
2018-12-08T04:43:24.549Z,991.69
2018-12-08T04:44:24.540Z,991.64
2018-12-08T04:45:24.531Z,991.63
2018-12-08T04:46:24.516Z,991.72
2018-12-08T04:47:24.508Z,991.61
2018-12-08T04:48:24.539Z,991.61
2018-12-08T04:49:24.486Z,991.60
2018-12-08T04:50:24.476Z,991.56
2018-12-08T04:51:24.462Z,991.57
2018-12-08T04:52:24.452Z,991.61
2018-12-08T04:53:24.440Z,991.63
2018-12-08T04:54:24.431Z,991.57
2018-12-08T04:55:24.423Z,991.62
2018-12-08T04:56:24.407Z,991.62
2018-12-08T04:57:24.400Z,991.63
2018-12-08T04:58:24.388Z,991.64
2018-12-08T04:59:24.379Z,991.58
2018-12-08T05:00:24.364Z,991.64
2018-12-08T05:01:24.357Z,991.58
2018-12-08T05:02:24.345Z,991.62
2018-12-08T05:03:24.339Z,991.62
2018-12-08T05:04:24.324Z,991.58
2018-12-08T05:05:24.314Z,991.59
2018-12-08T05:06:24.301Z,991.59
2018-12-08T05:07:24.291Z,991.59
2018-12-08T05:08:24.278Z,991.64
2018-12-08T05:09:24.267Z,991.64
2018-12-08T05:10:24.255Z,991.58
2018-12-08T05:11:24.246Z,991.64
2018-12-08T05:12:24.235Z,991.56
2018-12-08T05:13:24.224Z,991.52
2018-12-08T05:14:24.217Z,991.61
2018-12-08T05:15:24.202Z,991.60
2018-12-08T05:16:24.191Z,991.64
2018-12-08T05:17:24.180Z,991.67
2018-12-08T05:18:24.171Z,991.58
2018-12-08T05:19:24.158Z,991.57
2018-12-08T05:20:24.148Z,991.57
2018-12-08T05:21:24.136Z,991.51
2018-12-08T05:22:24.124Z,991.47
2018-12-08T05:23:24.113Z,991.50
2018-12-08T05:24:24.103Z,991.50
2018-12-08T05:25:24.097Z,991.50
2018-12-08T05:26:24.080Z,991.57
2018-12-08T05:27:24.070Z,991.50
2018-12-08T05:28:24.062Z,991.54
2018-12-08T05:29:24.048Z,991.51
2018-12-08T05:30:24.042Z,991.59
2018-12-08T05:31:24.027Z,991.49
2018-12-08T05:32:24.020Z,991.47
2018-12-08T05:33:24.006Z,991.40
2018-12-08T05:34:23.994Z,991.50
2018-12-08T05:35:23.982Z,991.53
2018-12-08T05:36:23.974Z,991.49
2018-12-08T05:37:23.963Z,991.41
2018-12-08T05:38:23.952Z,991.38
2018-12-08T05:39:23.939Z,991.36
2018-12-08T05:40:23.929Z,991.34
2018-12-08T05:41:23.918Z,991.29
2018-12-08T05:42:23.907Z,991.35
2018-12-08T05:43:23.897Z,991.30
2018-12-08T05:44:23.885Z,991.32
2018-12-08T05:45:23.877Z,991.31
2018-12-08T05:46:23.864Z,991.26
2018-12-08T05:47:23.854Z,991.37
2018-12-08T05:48:23.843Z,991.36
2018-12-08T05:49:23.831Z,991.42
2018-12-08T05:50:23.825Z,991.38
2018-12-08T05:51:23.814Z,991.48
2018-12-08T05:52:23.801Z,991.37
2018-12-08T05:53:23.788Z,991.38
2018-12-08T05:54:23.777Z,991.34
2018-12-08T05:55:23.765Z,991.39
2018-12-08T05:56:23.757Z,991.33
2018-12-08T05:57:23.747Z,991.28
2018-12-08T05:58:23.733Z,991.41
2018-12-08T05:59:23.721Z,991.42
2018-12-08T06:00:23.711Z,991.41
2018-12-08T06:01:23.701Z,991.46
2018-12-08T06:02:23.690Z,991.46
2018-12-08T06:03:23.677Z,991.44
2018-12-08T06:04:23.667Z,991.42
2018-12-08T06:05:23.657Z,991.42
2018-12-08T06:06:23.646Z,991.50
2018-12-08T06:07:23.639Z,991.45
2018-12-08T06:08:23.624Z,991.51
2018-12-08T06:09:23.613Z,991.46
2018-12-08T06:10:23.602Z,991.37
2018-12-08T06:11:23.589Z,991.38
2018-12-08T06:12:23.580Z,991.43
2018-12-08T06:13:23.572Z,991.34
2018-12-08T06:14:23.557Z,991.29
2018-12-08T06:15:23.548Z,991.24
2018-12-08T06:16:23.538Z,991.28
2018-12-08T06:17:23.527Z,991.33
2018-12-08T06:18:23.517Z,991.34
2018-12-08T06:19:23.507Z,991.48
2018-12-08T06:20:23.492Z,991.59
2018-12-08T06:21:23.483Z,991.39
2018-12-08T06:22:23.471Z,991.53
2018-12-08T06:23:23.466Z,991.50
2018-12-08T06:24:23.450Z,991.52
2018-12-08T06:25:23.438Z,991.55
2018-12-08T06:26:23.429Z,991.49
2018-12-08T06:27:23.418Z,991.52
2018-12-08T06:28:23.406Z,991.50
2018-12-08T06:29:23.397Z,991.55
2018-12-08T06:30:23.385Z,991.54
2018-12-08T06:31:23.376Z,991.60
2018-12-08T06:32:23.365Z,991.66
2018-12-08T06:33:23.351Z,991.63
2018-12-08T06:34:23.341Z,991.66
2018-12-08T06:35:23.330Z,991.60
2018-12-08T06:36:23.323Z,991.64
2018-12-08T06:37:23.310Z,991.60
2018-12-08T06:38:25.321Z,991.59
2018-12-08T06:39:23.287Z,991.57
2018-12-08T06:40:29.165Z,991.62
2018-12-08T06:41:24.280Z,991.59
2018-12-08T06:42:23.253Z,991.59
2018-12-08T06:43:23.244Z,991.54
2018-12-08T06:44:23.233Z,991.61
2018-12-08T06:45:23.223Z,991.49
2018-12-08T06:46:23.212Z,991.45
2018-12-08T06:47:23.202Z,991.47
2018-12-08T06:48:23.187Z,991.54
2018-12-08T06:49:23.179Z,991.47
2018-12-08T06:50:23.168Z,991.42
2018-12-08T06:51:23.157Z,991.40
2018-12-08T06:52:23.143Z,991.25
2018-12-08T06:53:23.136Z,991.34
2018-12-08T06:54:23.123Z,991.30
2018-12-08T06:55:23.114Z,991.32
2018-12-08T06:56:23.102Z,991.29
2018-12-08T06:57:23.093Z,991.20
2018-12-08T06:58:23.078Z,991.18
2018-12-08T06:59:23.071Z,991.20
2018-12-08T07:00:23.058Z,991.28
2018-12-08T07:01:23.048Z,991.23
2018-12-08T07:02:23.038Z,991.27
2018-12-08T07:03:23.025Z,991.27
2018-12-08T07:04:23.015Z,991.24
2018-12-08T07:05:23.005Z,991.29
2018-12-08T07:06:22.996Z,991.25
2018-12-08T07:07:22.982Z,991.25
2018-12-08T07:08:22.972Z,991.26
2018-12-08T07:09:22.958Z,991.23
2018-12-08T07:10:22.950Z,991.37
2018-12-08T07:11:22.938Z,991.24
2018-12-08T07:12:22.926Z,991.25
2018-12-08T07:13:22.917Z,991.27
2018-12-08T07:14:22.906Z,991.28
2018-12-08T07:15:22.896Z,991.27
2018-12-08T07:16:22.884Z,991.24
2018-12-08T07:17:22.874Z,991.21
2018-12-08T07:18:22.862Z,991.24
2018-12-08T07:19:22.852Z,991.21
2018-12-08T07:20:22.839Z,991.25
2018-12-08T07:21:22.830Z,991.25
2018-12-08T07:22:22.818Z,991.21
2018-12-08T07:23:22.807Z,991.28
2018-12-08T07:24:22.798Z,991.28
2018-12-08T07:25:22.788Z,991.17
2018-12-08T07:26:22.774Z,991.15
2018-12-08T07:27:22.766Z,991.02
2018-12-08T07:28:22.752Z,990.99
2018-12-08T07:29:22.741Z,990.98
2018-12-08T07:30:22.731Z,991.00
2018-12-08T07:31:22.719Z,991.12
2018-12-08T07:32:22.710Z,991.05
2018-12-08T07:33:22.701Z,991.02
2018-12-08T07:34:24.619Z,991.01
2018-12-08T07:35:22.679Z,991.01
2018-12-08T07:36:22.666Z,991.06
2018-12-08T07:37:22.659Z,991.00
2018-12-08T07:38:22.645Z,990.94
2018-12-08T07:39:22.632Z,990.97
2018-12-08T07:40:22.622Z,991.03
2018-12-08T07:41:22.612Z,990.97
2018-12-08T07:42:22.599Z,991.00
2018-12-08T07:43:22.596Z,991.00
2018-12-08T07:44:22.579Z,991.03
2018-12-08T07:45:22.568Z,990.98
2018-12-08T07:46:22.560Z,990.94
2018-12-08T07:47:22.544Z,991.01
2018-12-08T07:48:22.536Z,990.99
2018-12-08T07:49:22.524Z,990.97
2018-12-08T07:50:22.513Z,990.90
2018-12-08T07:51:22.502Z,990.86
2018-12-08T07:52:22.492Z,990.94
2018-12-08T07:53:22.480Z,990.93
2018-12-08T07:54:22.469Z,990.85
2018-12-08T07:55:22.460Z,990.84
2018-12-08T07:56:22.449Z,990.78
2018-12-08T07:57:22.437Z,990.73
2018-12-08T07:58:22.426Z,990.72
2018-12-08T07:59:22.414Z,990.68
2018-12-08T08:00:22.454Z,990.72
2018-12-08T08:01:22.395Z,990.70
2018-12-08T08:02:22.385Z,990.75
2018-12-08T08:03:22.372Z,990.80
2018-12-08T08:04:22.360Z,990.81
2018-12-08T08:05:22.348Z,990.85
2018-12-08T08:06:22.339Z,990.81
2018-12-08T08:07:22.329Z,990.74
2018-12-08T08:08:22.315Z,990.78
2018-12-08T08:09:22.304Z,990.76
2018-12-08T08:10:22.295Z,990.65
2018-12-08T08:11:22.283Z,990.70
2018-12-08T08:12:22.273Z,990.71
2018-12-08T08:13:22.260Z,990.69
2018-12-08T08:14:22.250Z,990.68
2018-12-08T08:15:22.239Z,990.73
2018-12-08T08:16:22.229Z,990.66
2018-12-08T08:17:22.217Z,990.73
2018-12-08T08:18:22.210Z,990.70
2018-12-08T08:19:22.196Z,990.65
2018-12-08T08:20:22.185Z,990.58
2018-12-08T08:21:22.173Z,990.81
2018-12-08T08:22:22.163Z,990.60
2018-12-08T08:23:22.150Z,990.63
2018-12-08T08:24:22.139Z,990.67
2018-12-08T08:25:22.129Z,990.71
2018-12-08T08:26:22.116Z,990.82
2018-12-08T08:27:22.105Z,990.83
2018-12-08T08:28:22.096Z,990.59
2018-12-08T08:29:22.087Z,990.68
2018-12-08T08:30:22.073Z,990.54
2018-12-08T08:31:22.067Z,990.65
2018-12-08T08:32:22.054Z,990.61
2018-12-08T08:33:22.041Z,990.61
2018-12-08T08:34:22.038Z,990.57
2018-12-08T08:35:22.019Z,990.57
2018-12-08T08:36:22.014Z,990.68
2018-12-08T08:37:22.000Z,990.68
2018-12-08T08:38:21.985Z,990.65
2018-12-08T08:39:21.974Z,990.66
2018-12-08T08:40:21.963Z,990.59
2018-12-08T08:41:21.954Z,990.59
2018-12-08T08:42:21.943Z,990.48
2018-12-08T08:43:21.931Z,990.55
2018-12-08T08:44:21.921Z,990.66
2018-12-08T08:45:21.909Z,990.53
2018-12-08T08:46:21.897Z,990.59
2018-12-08T08:47:21.889Z,990.58
2018-12-08T08:48:21.875Z,990.56
2018-12-08T08:49:21.867Z,990.62
2018-12-08T08:50:21.854Z,990.70
2018-12-08T08:51:21.859Z,990.68
2018-12-08T08:52:21.834Z,990.57
2018-12-08T08:53:21.823Z,990.61
2018-12-08T08:54:21.812Z,990.61
2018-12-08T08:55:21.799Z,990.53
2018-12-08T08:56:21.793Z,990.63
2018-12-08T08:57:21.783Z,990.59
2018-12-08T08:58:21.770Z,990.61
2018-12-08T08:59:21.759Z,990.55
2018-12-08T09:00:21.747Z,990.57
2018-12-08T09:01:21.736Z,990.53
2018-12-08T09:02:21.724Z,990.60
2018-12-08T09:03:21.713Z,990.48
2018-12-08T09:04:21.702Z,990.54
2018-12-08T09:05:21.695Z,990.53
2018-12-08T09:06:21.681Z,990.57
2018-12-08T09:07:21.669Z,990.50
2018-12-08T09:08:21.657Z,990.57
2018-12-08T09:09:21.648Z,990.61
2018-12-08T09:10:21.637Z,990.59
2018-12-08T09:11:21.625Z,990.58
2018-12-08T09:12:21.614Z,990.63
2018-12-08T09:13:21.606Z,990.63
2018-12-08T09:14:21.596Z,990.59
2018-12-08T09:15:21.580Z,990.59
2018-12-08T09:16:21.569Z,990.66
2018-12-08T09:17:21.558Z,990.67
2018-12-08T09:18:21.548Z,990.68
2018-12-08T09:19:21.538Z,990.67
2018-12-08T09:20:21.528Z,990.67
2018-12-08T09:21:21.515Z,990.60
2018-12-08T09:22:21.503Z,990.57
2018-12-08T09:23:21.495Z,990.48
2018-12-08T09:24:21.485Z,990.55
2018-12-08T09:25:21.470Z,990.61
2018-12-08T09:26:21.460Z,990.53
2018-12-08T09:27:21.447Z,990.59
2018-12-08T09:28:21.440Z,990.60
2018-12-08T09:29:21.431Z,990.62
2018-12-08T09:30:21.415Z,990.52
2018-12-08T09:31:21.405Z,990.52
2018-12-08T09:32:21.394Z,990.52
2018-12-08T09:33:21.387Z,990.52
2018-12-08T09:34:21.374Z,990.36
2018-12-08T09:35:21.362Z,990.55
2018-12-08T09:36:21.352Z,990.54
2018-12-08T09:37:21.338Z,990.50
2018-12-08T09:38:21.329Z,990.56
2018-12-08T09:39:21.319Z,990.55
2018-12-08T09:40:21.308Z,990.52
2018-12-08T09:41:21.295Z,990.63
2018-12-08T09:42:21.283Z,990.53
2018-12-08T09:43:21.272Z,990.61
2018-12-08T09:44:21.261Z,990.51
2018-12-08T09:45:21.251Z,990.55
2018-12-08T09:46:21.243Z,990.55
2018-12-08T09:47:21.230Z,990.59
2018-12-08T09:48:21.222Z,990.55
2018-12-08T09:49:21.209Z,990.50
2018-12-08T09:50:21.197Z,990.53
2018-12-08T09:51:21.187Z,990.57
2018-12-08T09:52:21.175Z,990.57
2018-12-08T09:53:21.166Z,990.55
2018-12-08T09:54:21.155Z,990.59
2018-12-08T09:55:21.144Z,990.64
2018-12-08T09:56:21.138Z,990.62
2018-12-08T09:57:21.120Z,990.54
2018-12-08T09:58:21.108Z,990.56
2018-12-08T09:59:21.097Z,990.45
2018-12-08T10:00:21.088Z,990.36
2018-12-08T10:01:21.075Z,990.34
2018-12-08T10:02:21.065Z,990.47
2018-12-08T10:03:21.058Z,990.60
2018-12-08T10:04:21.043Z,990.59
2018-12-08T10:05:21.033Z,990.64
2018-12-08T10:06:21.023Z,990.48
2018-12-08T10:07:21.013Z,990.59
2018-12-08T10:08:21.000Z,990.61
2018-12-08T10:09:20.989Z,990.56
2018-12-08T10:10:20.977Z,990.41
2018-12-08T10:11:21.063Z,990.40
2018-12-08T10:12:20.956Z,990.52
2018-12-08T10:13:20.944Z,990.40
2018-12-08T10:14:20.933Z,990.44
2018-12-08T10:15:20.922Z,990.46
2018-12-08T10:16:20.911Z,990.43
2018-12-08T10:17:20.900Z,990.42
2018-12-08T10:18:20.894Z,990.41
2018-12-08T10:19:20.882Z,990.41
2018-12-08T10:20:20.869Z,990.43
2018-12-08T10:21:20.859Z,990.39
2018-12-08T10:22:20.847Z,990.36
2018-12-08T10:23:20.836Z,990.44
2018-12-08T10:24:20.823Z,990.47
2018-12-08T10:25:20.814Z,990.48
2018-12-08T10:26:20.805Z,990.46
2018-12-08T10:27:20.792Z,990.35
2018-12-08T10:28:20.782Z,990.37
2018-12-08T10:29:20.770Z,990.29
2018-12-08T10:30:20.761Z,990.37
2018-12-08T10:31:20.747Z,990.33
2018-12-08T10:32:20.738Z,990.40
2018-12-08T10:33:20.727Z,990.36
2018-12-08T10:34:20.718Z,990.30
2018-12-08T10:35:20.704Z,990.31
2018-12-08T10:36:20.693Z,990.38
2018-12-08T10:37:20.683Z,990.35
2018-12-08T10:38:20.673Z,990.33
2018-12-08T10:39:20.662Z,990.36
2018-12-08T10:40:20.649Z,990.32
2018-12-08T10:41:20.643Z,990.38
2018-12-08T10:42:20.628Z,990.34
2018-12-08T10:43:20.619Z,990.33
2018-12-08T10:44:20.613Z,990.38
2018-12-08T10:45:20.594Z,990.36
2018-12-08T10:46:20.585Z,990.38
2018-12-08T10:47:20.571Z,990.35
2018-12-08T10:48:20.560Z,990.30
2018-12-08T10:49:20.550Z,990.34
2018-12-08T10:50:20.542Z,990.32
2018-12-08T10:51:20.528Z,990.34
2018-12-08T10:52:20.518Z,990.34
2018-12-08T10:53:20.507Z,990.31
2018-12-08T10:54:20.497Z,990.27
2018-12-08T10:55:20.486Z,990.34
2018-12-08T10:56:20.472Z,990.31
2018-12-08T10:57:20.466Z,990.27
2018-12-08T10:58:20.450Z,990.32
2018-12-08T10:59:20.439Z,990.34
2018-12-08T11:00:20.431Z,990.23
2018-12-08T11:01:20.420Z,990.25
2018-12-08T11:02:20.406Z,990.25
2018-12-08T11:03:20.395Z,990.19
2018-12-08T11:04:20.387Z,990.17
2018-12-08T11:05:20.374Z,990.21
2018-12-08T11:06:20.363Z,990.10
2018-12-08T11:07:20.352Z,990.18
2018-12-08T11:08:20.340Z,990.18
2018-12-08T11:09:20.331Z,990.11
2018-12-08T11:10:20.320Z,990.20
2018-12-08T11:11:20.310Z,990.17
2018-12-08T11:12:20.296Z,990.20
2018-12-08T11:13:20.286Z,990.15
2018-12-08T11:14:20.278Z,990.14
2018-12-08T11:15:20.268Z,990.12
2018-12-08T11:16:20.254Z,990.17
2018-12-08T11:17:20.242Z,990.12
2018-12-08T11:18:20.230Z,990.20
2018-12-08T11:19:20.222Z,990.10
2018-12-08T11:20:20.210Z,990.08
2018-12-08T11:21:20.198Z,990.01
2018-12-08T11:22:20.187Z,989.98
2018-12-08T11:23:20.176Z,990.06
2018-12-08T11:24:20.166Z,990.04
2018-12-08T11:25:20.156Z,990.00
2018-12-08T11:26:20.144Z,989.92
2018-12-08T11:27:20.139Z,990.04
2018-12-08T11:28:20.122Z,989.96
2018-12-08T11:29:20.112Z,990.04
2018-12-08T11:30:20.103Z,990.06
2018-12-08T11:31:20.090Z,990.05
2018-12-08T11:32:20.079Z,990.10
2018-12-08T11:33:20.068Z,990.18
2018-12-08T11:34:20.064Z,990.15
2018-12-08T11:35:20.097Z,990.15
2018-12-08T11:36:20.035Z,990.10
2018-12-08T11:37:20.024Z,990.16
2018-12-08T11:38:20.013Z,990.12
2018-12-08T11:39:20.003Z,990.15
2018-12-08T11:40:19.992Z,990.15
2018-12-08T11:41:19.979Z,990.11
2018-12-08T11:42:19.969Z,990.09
2018-12-08T11:43:19.960Z,990.12
2018-12-08T11:44:19.948Z,990.22
2018-12-08T11:45:19.936Z,990.18
2018-12-08T11:46:19.926Z,990.15
2018-12-08T11:47:19.914Z,990.21
2018-12-08T11:48:19.904Z,990.25
2018-12-08T11:49:19.894Z,990.30
2018-12-08T11:50:19.886Z,990.33
2018-12-08T11:51:19.872Z,990.31
2018-12-08T11:52:19.859Z,990.34
2018-12-08T11:53:19.849Z,990.36
2018-12-08T11:54:19.840Z,990.22
2018-12-08T11:55:19.828Z,990.44
2018-12-08T11:56:19.825Z,990.44
2018-12-08T11:57:19.807Z,990.38
2018-12-08T11:58:19.794Z,990.45
2018-12-08T11:59:19.785Z,990.44
2018-12-08T12:00:19.775Z,990.37
2018-12-08T12:01:19.764Z,990.40
2018-12-08T12:02:19.749Z,990.36
2018-12-08T12:03:19.740Z,990.37
2018-12-08T12:04:19.728Z,990.34
2018-12-08T12:05:19.716Z,990.32
2018-12-08T12:06:19.706Z,990.33
2018-12-08T12:07:19.696Z,990.35
2018-12-08T12:08:19.685Z,990.32
2018-12-08T12:09:19.674Z,990.25
2018-12-08T12:10:19.665Z,990.32
2018-12-08T12:11:19.650Z,990.32
2018-12-08T12:12:19.643Z,990.27
2018-12-08T12:13:19.630Z,990.31
2018-12-08T12:14:19.620Z,990.22
2018-12-08T12:15:19.609Z,990.27
2018-12-08T12:16:19.599Z,990.23
2018-12-08T12:17:19.587Z,990.22
2018-12-08T12:18:19.575Z,990.29
2018-12-08T12:19:19.565Z,990.24
2018-12-08T12:20:19.554Z,990.27
2018-12-08T12:21:19.542Z,990.29
2018-12-08T12:22:19.529Z,990.26
2018-12-08T12:23:19.520Z,990.22
2018-12-08T12:24:19.508Z,990.22
2018-12-08T12:25:19.500Z,990.17
2018-12-08T12:26:19.488Z,990.19
2018-12-08T12:27:19.478Z,990.19
2018-12-08T12:28:19.466Z,990.11